sensor_id;sensor_type;location;lat;lon;timestamp;pressure;altitude;pressure_sealevel;temperature;humidity
37904;BME280;23738;50.422;18.758;2023-01-15T00:01:54;97898.02;;;4.24;76.65
37904;BME280;23738;50.422;18.758;2023-01-15T00:04:23;97900.61;;;4.26;76.84
37904;BME280;23738;50.422;18.758;2023-01-15T00:06:53;97900.11;;;4.29;76.62
37904;BME280;23738;50.422;18.758;2023-01-15T00:09:22;97899.70;;;4.33;76.62
37904;BME280;23738;50.422;18.758;2023-01-15T00:11:51;97898.55;;;4.41;76.67
37904;BME280;23738;50.422;18.758;2023-01-15T00:14:21;97893.36;;;4.45;76.62
37904;BME280;23738;50.422;18.758;2023-01-15T00:16:52;97889.52;;;4.46;76.59
37904;BME280;23738;50.422;18.758;2023-01-15T00:19:21;97888.92;;;4.47;76.62
37904;BME280;23738;50.422;18.758;2023-01-15T00:21:50;97890.69;;;4.47;76.61
37904;BME280;23738;50.422;18.758;2023-01-15T00:24:20;97876.13;;;4.41;76.66
37904;BME280;23738;50.422;18.758;2023-01-15T00:27:09;97875.83;;;4.46;76.52
37904;BME280;23738;50.422;18.758;2023-01-15T00:29:56;97865.59;;;4.45;76.46
37904;BME280;23738;50.422;18.758;2023-01-15T00:32:26;97860.99;;;4.47;76.51
37904;BME280;23738;50.422;18.758;2023-01-15T00:34:57;97862.38;;;4.49;76.33
37904;BME280;23738;50.422;18.758;2023-01-15T00:37:26;97861.70;;;4.51;76.35
37904;BME280;23738;50.422;18.758;2023-01-15T00:39:55;97861.50;;;4.53;76.25
37904;BME280;23738;50.422;18.758;2023-01-15T00:42:25;97860.27;;;4.53;76.17
37904;BME280;23738;50.422;18.758;2023-01-15T00:44:55;97857.26;;;4.52;76.20
37904;BME280;23738;50.422;18.758;2023-01-15T00:47:25;97855.88;;;4.52;76.22
37904;BME280;23738;50.422;18.758;2023-01-15T00:49:54;97852.20;;;4.52;76.19
37904;BME280;23738;50.422;18.758;2023-01-15T00:52:23;97848.80;;;4.54;76.00
37904;BME280;23738;50.422;18.758;2023-01-15T00:54:53;97841.83;;;4.57;76.09
37904;BME280;23738;50.422;18.758;2023-01-15T00:57:22;97831.95;;;4.58;76.08
37904;BME280;23738;50.422;18.758;2023-01-15T00:59:51;97819.98;;;4.58;76.03
37904;BME280;23738;50.422;18.758;2023-01-15T01:02:20;97815.23;;;4.57;76.02
37904;BME280;23738;50.422;18.758;2023-01-15T01:04:50;97808.39;;;4.54;75.89
37904;BME280;23738;50.422;18.758;2023-01-15T01:07:19;97803.23;;;4.50;75.74
37904;BME280;23738;50.422;18.758;2023-01-15T01:09:49;97798.40;;;4.48;75.84
37904;BME280;23738;50.422;18.758;2023-01-15T01:12:18;97793.59;;;4.48;75.92
37904;BME280;23738;50.422;18.758;2023-01-15T01:14:48;97789.04;;;4.50;75.72
37904;BME280;23738;50.422;18.758;2023-01-15T01:17:17;97785.50;;;4.52;75.77
37904;BME280;23738;50.422;18.758;2023-01-15T01:19:47;97788.38;;;4.51;75.65
37904;BME280;23738;50.422;18.758;2023-01-15T01:22:16;97790.48;;;4.49;75.60
37904;BME280;23738;50.422;18.758;2023-01-15T01:24:45;97783.79;;;4.48;75.68
37904;BME280;23738;50.422;18.758;2023-01-15T01:27:14;97775.70;;;4.46;75.44
37904;BME280;23738;50.422;18.758;2023-01-15T01:29:46;97758.27;;;4.44;75.51
37904;BME280;23738;50.422;18.758;2023-01-15T01:32:15;97760.76;;;4.46;75.50
37904;BME280;23738;50.422;18.758;2023-01-15T01:34:44;97756.02;;;4.47;75.56
37904;BME280;23738;50.422;18.758;2023-01-15T01:37:13;97752.59;;;4.49;75.37
37904;BME280;23738;50.422;18.758;2023-01-15T01:39:42;97746.23;;;4.47;75.37
37904;BME280;23738;50.422;18.758;2023-01-15T01:42:16;97740.17;;;4.48;75.30
37904;BME280;23738;50.422;18.758;2023-01-15T01:45:10;97738.92;;;4.47;75.38
37904;BME280;23738;50.422;18.758;2023-01-15T01:47:45;97732.80;;;4.46;75.28
37904;BME280;23738;50.422;18.758;2023-01-15T01:50:15;97733.04;;;4.47;75.37
37904;BME280;23738;50.422;18.758;2023-01-15T01:52:47;97729.43;;;4.51;75.36
37904;BME280;23738;50.422;18.758;2023-01-15T01:55:20;97716.56;;;4.55;75.35
37904;BME280;23738;50.422;18.758;2023-01-15T01:57:53;97717.95;;;4.56;75.20
37904;BME280;23738;50.422;18.758;2023-01-15T02:00:24;97724.55;;;4.56;75.44
37904;BME280;23738;50.422;18.758;2023-01-15T02:02:54;97728.27;;;4.57;75.32
37904;BME280;23738;50.422;18.758;2023-01-15T02:05:28;97725.98;;;4.56;75.31
37904;BME280;23738;50.422;18.758;2023-01-15T02:07:59;97720.95;;;4.55;75.13
37904;BME280;23738;50.422;18.758;2023-01-15T02:10:28;97719.38;;;4.53;75.18
37904;BME280;23738;50.422;18.758;2023-01-15T02:13:02;97717.22;;;4.54;75.16
37904;BME280;23738;50.422;18.758;2023-01-15T02:15:36;97711.95;;;4.58;75.13
37904;BME280;23738;50.422;18.758;2023-01-15T02:18:11;97702.74;;;4.63;75.25
37904;BME280;23738;50.422;18.758;2023-01-15T02:20:49;97686.40;;;4.66;75.08
37904;BME280;23738;50.422;18.758;2023-01-15T02:23:30;97678.17;;;4.70;75.17
37904;BME280;23738;50.422;18.758;2023-01-15T02:29:00;97673.88;;;4.71;75.02
37904;BME280;23738;50.422;18.758;2023-01-15T02:31:35;97672.15;;;4.72;75.03
37904;BME280;23738;50.422;18.758;2023-01-15T02:34:11;97679.95;;;4.77;75.16
37904;BME280;23738;50.422;18.758;2023-01-15T02:36:45;97680.91;;;4.80;75.01
37904;BME280;23738;50.422;18.758;2023-01-15T02:39:18;97687.58;;;4.86;74.92
37904;BME280;23738;50.422;18.758;2023-01-15T02:41:50;97680.27;;;4.88;75.22
37904;BME280;23738;50.422;18.758;2023-01-15T02:44:22;97680.91;;;4.93;74.99
37904;BME280;23738;50.422;18.758;2023-01-15T02:46:54;97679.10;;;4.95;74.82
37904;BME280;23738;50.422;18.758;2023-01-15T02:49:23;97684.67;;;4.97;75.03
37904;BME280;23738;50.422;18.758;2023-01-15T02:51:56;97682.30;;;4.99;74.96
37904;BME280;23738;50.422;18.758;2023-01-15T02:54:30;97674.14;;;5.02;74.77
37904;BME280;23738;50.422;18.758;2023-01-15T02:57:02;97676.67;;;5.08;74.72
37904;BME280;23738;50.422;18.758;2023-01-15T02:59:36;97671.42;;;5.11;74.72
37904;BME280;23738;50.422;18.758;2023-01-15T03:02:10;97670.53;;;5.14;74.54
37904;BME280;23738;50.422;18.758;2023-01-15T03:04:45;97671.27;;;5.15;74.60
37904;BME280;23738;50.422;18.758;2023-01-15T03:07:19;97681.27;;;5.16;74.64
37904;BME280;23738;50.422;18.758;2023-01-15T03:09:50;97687.68;;;5.17;74.53
37904;BME280;23738;50.422;18.758;2023-01-15T03:12:23;97683.84;;;5.18;74.63
37904;BME280;23738;50.422;18.758;2023-01-15T03:15:01;97681.29;;;5.22;74.65
37904;BME280;23738;50.422;18.758;2023-01-15T03:17:36;97670.90;;;5.27;74.70
37904;BME280;23738;50.422;18.758;2023-01-15T03:20:10;97668.38;;;5.32;74.40
37904;BME280;23738;50.422;18.758;2023-01-15T03:22:47;97659.26;;;5.35;74.50
37904;BME280;23738;50.422;18.758;2023-01-15T03:25:19;97655.48;;;5.37;74.31
37904;BME280;23738;50.422;18.758;2023-01-15T03:27:53;97647.79;;;5.40;74.79
37904;BME280;23738;50.422;18.758;2023-01-15T03:30:24;97642.65;;;5.43;74.38
37904;BME280;23738;50.422;18.758;2023-01-15T03:32:55;97637.48;;;5.46;74.51
37904;BME280;23738;50.422;18.758;2023-01-15T03:35:46;97631.13;;;5.52;73.99
37904;BME280;23738;50.422;18.758;2023-01-15T03:38:18;97633.43;;;5.59;74.08
37904;BME280;23738;50.422;18.758;2023-01-15T03:40:55;97628.15;;;5.63;74.19
37904;BME280;23738;50.422;18.758;2023-01-15T03:43:34;97622.91;;;5.69;74.31
37904;BME280;23738;50.422;18.758;2023-01-15T03:46:16;97615.69;;;5.72;74.04
37904;BME280;23738;50.422;18.758;2023-01-15T03:48:57;97614.61;;;5.76;74.20
37904;BME280;23738;50.422;18.758;2023-01-15T03:51:35;97611.02;;;5.80;74.31
37904;BME280;23738;50.422;18.758;2023-01-15T03:54:08;97610.83;;;5.86;74.00
37904;BME280;23738;50.422;18.758;2023-01-15T03:56:44;97605.92;;;5.93;73.87
37904;BME280;23738;50.422;18.758;2023-01-15T03:59:25;97606.27;;;6.03;74.20
37904;BME280;23738;50.422;18.758;2023-01-15T04:01:57;97603.89;;;6.09;73.90
37904;BME280;23738;50.422;18.758;2023-01-15T04:04:27;97597.95;;;6.16;74.02
37904;BME280;23738;50.422;18.758;2023-01-15T04:06:58;97602.39;;;6.21;73.74
37904;BME280;23738;50.422;18.758;2023-01-15T04:09:28;97594.24;;;6.25;73.87
37904;BME280;23738;50.422;18.758;2023-01-15T04:12:00;97589.98;;;6.26;73.85
37904;BME280;23738;50.422;18.758;2023-01-15T04:14:30;97591.98;;;6.29;74.09
37904;BME280;23738;50.422;18.758;2023-01-15T04:17:00;97587.95;;;6.33;73.94
37904;BME280;23738;50.422;18.758;2023-01-15T04:19:29;97586.73;;;6.37;74.11
37904;BME280;23738;50.422;18.758;2023-01-15T04:21:58;97586.27;;;6.40;74.25
37904;BME280;23738;50.422;18.758;2023-01-15T04:24:28;97589.79;;;6.40;74.26
37904;BME280;23738;50.422;18.758;2023-01-15T04:26:57;97584.70;;;6.40;74.44
37904;BME280;23738;50.422;18.758;2023-01-15T04:29:29;97583.21;;;6.40;74.31
37904;BME280;23738;50.422;18.758;2023-01-15T04:31:58;97586.00;;;6.38;74.51
37904;BME280;23738;50.422;18.758;2023-01-15T04:34:28;97583.86;;;6.39;74.61
37904;BME280;23738;50.422;18.758;2023-01-15T04:36:57;97580.10;;;6.39;74.71
37904;BME280;23738;50.422;18.758;2023-01-15T04:39:27;97578.46;;;6.41;74.94
37904;BME280;23738;50.422;18.758;2023-01-15T04:41:56;97574.48;;;6.42;74.68
37904;BME280;23738;50.422;18.758;2023-01-15T04:44:43;97569.79;;;6.43;74.94
37904;BME280;23738;50.422;18.758;2023-01-15T04:47:12;97567.70;;;6.45;75.11
37904;BME280;23738;50.422;18.758;2023-01-15T04:49:41;97562.70;;;6.45;75.17
37904;BME280;23738;50.422;18.758;2023-01-15T04:52:10;97560.09;;;6.49;75.40
37904;BME280;23738;50.422;18.758;2023-01-15T04:54:40;97558.94;;;6.53;75.28
37904;BME280;23738;50.422;18.758;2023-01-15T04:57:11;97558.80;;;6.55;75.10
37904;BME280;23738;50.422;18.758;2023-01-15T04:59:40;97556.27;;;6.56;75.28
37904;BME280;23738;50.422;18.758;2023-01-15T05:02:10;97555.37;;;6.55;75.13
37904;BME280;23738;50.422;18.758;2023-01-15T05:04:39;97549.48;;;6.51;75.14
37904;BME280;23738;50.422;18.758;2023-01-15T05:07:09;97540.59;;;6.49;75.00
37904;BME280;23738;50.422;18.758;2023-01-15T05:09:38;97539.01;;;6.46;75.11
37904;BME280;23738;50.422;18.758;2023-01-15T05:12:08;97535.36;;;6.42;75.06
37904;BME280;23738;50.422;18.758;2023-01-15T05:14:38;97534.05;;;6.40;74.95
37904;BME280;23738;50.422;18.758;2023-01-15T05:17:07;97537.56;;;6.36;74.76
37904;BME280;23738;50.422;18.758;2023-01-15T05:19:36;97544.80;;;6.32;74.93
37904;BME280;23738;50.422;18.758;2023-01-15T05:22:05;97542.54;;;6.31;74.84
37904;BME280;23738;50.422;18.758;2023-01-15T05:24:35;97539.80;;;6.31;74.92
37904;BME280;23738;50.422;18.758;2023-01-15T05:27:04;97541.10;;;6.30;74.71
37904;BME280;23738;50.422;18.758;2023-01-15T05:29:34;97540.64;;;6.28;74.98
37904;BME280;23738;50.422;18.758;2023-01-15T05:32:05;97538.89;;;6.27;74.82
37904;BME280;23738;50.422;18.758;2023-01-15T05:34:34;97536.27;;;6.25;74.83
37904;BME280;23738;50.422;18.758;2023-01-15T05:37:04;97534.85;;;6.24;74.77
37904;BME280;23738;50.422;18.758;2023-01-15T05:39:33;97531.66;;;6.26;75.14
37904;BME280;23738;50.422;18.758;2023-01-15T05:42:02;97530.77;;;6.26;74.58
37904;BME280;23738;50.422;18.758;2023-01-15T05:44:32;97529.33;;;6.26;74.69
37904;BME280;23738;50.422;18.758;2023-01-15T05:47:02;97527.80;;;6.27;74.59
37904;BME280;23738;50.422;18.758;2023-01-15T05:49:34;97521.50;;;6.24;74.70
37904;BME280;23738;50.422;18.758;2023-01-15T05:52:04;97528.08;;;6.25;74.62
37904;BME280;23738;50.422;18.758;2023-01-15T05:54:36;97525.01;;;6.23;74.70
37904;BME280;23738;50.422;18.758;2023-01-15T05:57:05;97526.45;;;6.22;74.48
37904;BME280;23738;50.422;18.758;2023-01-15T05:59:34;97522.09;;;6.23;74.58
37904;BME280;23738;50.422;18.758;2023-01-15T06:02:04;97517.70;;;6.24;74.78
37904;BME280;23738;50.422;18.758;2023-01-15T06:04:33;97520.61;;;6.25;74.59
37904;BME280;23738;50.422;18.758;2023-01-15T06:07:02;97520.31;;;6.23;74.52
37904;BME280;23738;50.422;18.758;2023-01-15T06:09:31;97533.92;;;6.21;74.51
37904;BME280;23738;50.422;18.758;2023-01-15T06:12:01;97528.13;;;6.18;74.66
37904;BME280;23738;50.422;18.758;2023-01-15T06:14:30;97533.36;;;6.17;74.56
37904;BME280;23738;50.422;18.758;2023-01-15T06:16:59;97534.89;;;6.15;74.70
37904;BME280;23738;50.422;18.758;2023-01-15T06:19:29;97534.70;;;6.14;74.74
37904;BME280;23738;50.422;18.758;2023-01-15T06:21:59;97530.25;;;6.16;74.59
37904;BME280;23738;50.422;18.758;2023-01-15T06:24:28;97528.88;;;6.16;74.85
37904;BME280;23738;50.422;18.758;2023-01-15T06:26:57;97523.80;;;6.14;74.69
37904;BME280;23738;50.422;18.758;2023-01-15T06:29:27;97524.08;;;6.11;74.47
37904;BME280;23738;50.422;18.758;2023-01-15T06:31:57;97531.15;;;6.08;74.69
37904;BME280;23738;50.422;18.758;2023-01-15T06:34:26;97532.52;;;6.04;74.68
37904;BME280;23738;50.422;18.758;2023-01-15T06:36:55;97524.09;;;6.00;74.50
37904;BME280;23738;50.422;18.758;2023-01-15T06:39:25;97530.38;;;5.98;74.52
37904;BME280;23738;50.422;18.758;2023-01-15T06:41:54;97531.55;;;5.95;74.50
37904;BME280;23738;50.422;18.758;2023-01-15T06:44:41;97529.29;;;5.96;74.62
37904;BME280;23738;50.422;18.758;2023-01-15T06:47:28;97525.05;;;5.99;74.61
37904;BME280;23738;50.422;18.758;2023-01-15T06:49:58;97521.63;;;6.00;74.56
37904;BME280;23738;50.422;18.758;2023-01-15T06:52:29;97531.75;;;5.99;74.47
37904;BME280;23738;50.422;18.758;2023-01-15T06:54:59;97535.73;;;5.99;74.57
37904;BME280;23738;50.422;18.758;2023-01-15T06:57:28;97538.20;;;5.99;74.21
37904;BME280;23738;50.422;18.758;2023-01-15T06:59:57;97537.73;;;5.99;74.43
37904;BME280;23738;50.422;18.758;2023-01-15T07:02:26;97531.55;;;5.99;74.43
37904;BME280;23738;50.422;18.758;2023-01-15T07:04:55;97528.53;;;6.00;73.96
37904;BME280;23738;50.422;18.758;2023-01-15T07:07:28;97531.77;;;6.02;74.07
37904;BME280;23738;50.422;18.758;2023-01-15T07:09:57;97541.46;;;6.04;74.21
37904;BME280;23738;50.422;18.758;2023-01-15T07:12:27;97539.45;;;6.06;74.08
37904;BME280;23738;50.422;18.758;2023-01-15T07:14:57;97539.42;;;6.06;73.73
37904;BME280;23738;50.422;18.758;2023-01-15T07:17:26;97543.14;;;6.06;74.07
37904;BME280;23738;50.422;18.758;2023-01-15T07:19:56;97537.35;;;6.04;73.88
37904;BME280;23738;50.422;18.758;2023-01-15T07:22:25;97527.77;;;6.01;73.95
37904;BME280;23738;50.422;18.758;2023-01-15T07:24:54;97532.52;;;6.05;73.92
37904;BME280;23738;50.422;18.758;2023-01-15T07:27:23;97536.46;;;6.07;74.00
37904;BME280;23738;50.422;18.758;2023-01-15T07:29:53;97540.63;;;6.09;73.71
37904;BME280;23738;50.422;18.758;2023-01-15T07:32:25;97541.60;;;6.08;74.03
37904;BME280;23738;50.422;18.758;2023-01-15T07:34:54;97538.70;;;6.09;73.74
37904;BME280;23738;50.422;18.758;2023-01-15T07:37:24;97535.27;;;6.08;74.05
37904;BME280;23738;50.422;18.758;2023-01-15T07:39:53;97536.84;;;6.06;73.79
37904;BME280;23738;50.422;18.758;2023-01-15T07:42:22;97537.44;;;6.05;73.67
37904;BME280;23738;50.422;18.758;2023-01-15T07:45:11;97540.30;;;6.06;73.75
37904;BME280;23738;50.422;18.758;2023-01-15T07:47:57;97540.26;;;6.08;73.74
37904;BME280;23738;50.422;18.758;2023-01-15T07:50:44;97537.52;;;6.07;73.71
37904;BME280;23738;50.422;18.758;2023-01-15T07:53:13;97535.42;;;6.07;73.29
37904;BME280;23738;50.422;18.758;2023-01-15T07:55:43;97526.55;;;6.06;73.52
37904;BME280;23738;50.422;18.758;2023-01-15T07:58:12;97527.95;;;6.04;73.43
37904;BME280;23738;50.422;18.758;2023-01-15T08:00:42;97532.86;;;6.03;73.36
37904;BME280;23738;50.422;18.758;2023-01-15T08:03:11;97535.85;;;6.04;73.36
37904;BME280;23738;50.422;18.758;2023-01-15T08:05:40;97534.17;;;6.06;73.56
37904;BME280;23738;50.422;18.758;2023-01-15T08:08:16;97528.81;;;6.08;73.28
37904;BME280;23738;50.422;18.758;2023-01-15T08:10:45;97532.54;;;6.11;73.02
37904;BME280;23738;50.422;18.758;2023-01-15T08:13:28;97533.64;;;6.12;73.03
37904;BME280;23738;50.422;18.758;2023-01-15T08:16:15;97534.28;;;6.12;72.98
37904;BME280;23738;50.422;18.758;2023-01-15T08:18:45;97525.92;;;6.10;72.72
37904;BME280;23738;50.422;18.758;2023-01-15T08:21:17;97522.32;;;6.08;72.97
37904;BME280;23738;50.422;18.758;2023-01-15T08:23:47;97516.67;;;6.07;72.67
37904;BME280;23738;50.422;18.758;2023-01-15T08:26:17;97513.14;;;6.11;72.57
37904;BME280;23738;50.422;18.758;2023-01-15T08:28:47;97506.05;;;6.13;72.88
37904;BME280;23738;50.422;18.758;2023-01-15T08:31:16;97501.09;;;6.13;72.62
37904;BME280;23738;50.422;18.758;2023-01-15T08:33:45;97502.34;;;6.14;72.50
37904;BME280;23738;50.422;18.758;2023-01-15T08:36:14;97497.59;;;6.14;72.53
37904;BME280;23738;50.422;18.758;2023-01-15T08:38:47;97496.05;;;6.14;72.44
37904;BME280;23738;50.422;18.758;2023-01-15T08:41:16;97495.96;;;6.15;72.19
37904;BME280;23738;50.422;18.758;2023-01-15T08:43:45;97491.77;;;6.15;72.18
37904;BME280;23738;50.422;18.758;2023-01-15T08:46:14;97484.15;;;6.18;72.36
37904;BME280;23738;50.422;18.758;2023-01-15T08:48:44;97486.34;;;6.19;72.44
37904;BME280;23738;50.422;18.758;2023-01-15T08:51:15;97494.06;;;6.22;72.39
37904;BME280;23738;50.422;18.758;2023-01-15T08:53:44;97496.15;;;6.23;72.32
37904;BME280;23738;50.422;18.758;2023-01-15T08:56:15;97495.39;;;6.25;71.96
37904;BME280;23738;50.422;18.758;2023-01-15T08:58:45;97502.73;;;6.25;72.23
37904;BME280;23738;50.422;18.758;2023-01-15T09:01:15;97500.55;;;6.24;71.86
37904;BME280;23738;50.422;18.758;2023-01-15T09:03:45;97503.57;;;6.24;72.13
37904;BME280;23738;50.422;18.758;2023-01-15T09:06:14;97502.44;;;6.23;71.94
37904;BME280;23738;50.422;18.758;2023-01-15T09:08:43;97503.54;;;6.22;72.18
37904;BME280;23738;50.422;18.758;2023-01-15T09:11:13;97505.55;;;6.22;72.04
37904;BME280;23738;50.422;18.758;2023-01-15T09:13:42;97500.33;;;6.26;72.07
37904;BME280;23738;50.422;18.758;2023-01-15T09:16:13;97497.43;;;6.28;71.86
37904;BME280;23738;50.422;18.758;2023-01-15T09:18:44;97499.77;;;6.30;71.93
37904;BME280;23738;50.422;18.758;2023-01-15T09:21:13;97495.12;;;6.31;71.82
37904;BME280;23738;50.422;18.758;2023-01-15T09:23:43;97491.11;;;6.30;71.66
37904;BME280;23738;50.422;18.758;2023-01-15T09:26:27;97479.35;;;6.28;71.87
37904;BME280;23738;50.422;18.758;2023-01-15T09:28:56;97476.30;;;6.24;72.05
37904;BME280;23738;50.422;18.758;2023-01-15T09:31:26;97470.21;;;6.22;72.16
37904;BME280;23738;50.422;18.758;2023-01-15T09:33:56;97465.48;;;6.19;72.23
37904;BME280;23738;50.422;18.758;2023-01-15T09:36:27;97464.05;;;6.16;72.16
37904;BME280;23738;50.422;18.758;2023-01-15T09:38:58;97462.45;;;6.19;72.29
37904;BME280;23738;50.422;18.758;2023-01-15T09:41:37;97460.45;;;6.24;72.12
37904;BME280;23738;50.422;18.758;2023-01-15T09:44:38;97460.33;;;6.26;72.25
37904;BME280;23738;50.422;18.758;2023-01-15T09:47:17;97455.41;;;6.26;72.36
37904;BME280;23738;50.422;18.758;2023-01-15T09:50:02;97454.64;;;6.25;72.24
37904;BME280;23738;50.422;18.758;2023-01-15T09:52:45;97451.97;;;6.24;72.41
37904;BME280;23738;50.422;18.758;2023-01-15T09:55:21;97450.64;;;6.22;72.28
37904;BME280;23738;50.422;18.758;2023-01-15T09:57:56;97440.47;;;6.20;72.29
37904;BME280;23738;50.422;18.758;2023-01-15T10:00:29;97432.59;;;6.19;72.52
37904;BME280;23738;50.422;18.758;2023-01-15T10:03:05;97432.36;;;6.19;72.40
37904;BME280;23738;50.422;18.758;2023-01-15T10:05:37;97426.48;;;6.21;72.76
37904;BME280;23738;50.422;18.758;2023-01-15T10:08:14;97419.90;;;6.20;72.78
37904;BME280;23738;50.422;18.758;2023-01-15T10:10:47;97418.85;;;6.20;72.48
37904;BME280;23738;50.422;18.758;2023-01-15T10:13:25;97413.15;;;6.18;72.75
37904;BME280;23738;50.422;18.758;2023-01-15T10:15:56;97411.09;;;6.14;72.85
37904;BME280;23738;50.422;18.758;2023-01-15T10:18:27;97408.30;;;6.10;72.63
37904;BME280;23738;50.422;18.758;2023-01-15T10:21:17;97399.52;;;6.08;72.71
37904;BME280;23738;50.422;18.758;2023-01-15T10:23:58;97400.15;;;6.11;72.68
37904;BME280;23738;50.422;18.758;2023-01-15T10:26:35;97398.71;;;6.13;72.92
37904;BME280;23738;50.422;18.758;2023-01-15T10:29:13;97401.27;;;6.13;73.05
37904;BME280;23738;50.422;18.758;2023-01-15T10:31:53;97400.73;;;6.13;73.01
37904;BME280;23738;50.422;18.758;2023-01-15T10:34:31;97401.09;;;6.14;73.23
37904;BME280;23738;50.422;18.758;2023-01-15T10:37:10;97398.52;;;6.13;73.33
37904;BME280;23738;50.422;18.758;2023-01-15T10:39:51;97397.69;;;6.11;73.21
37904;BME280;23738;50.422;18.758;2023-01-15T10:42:35;97394.41;;;6.11;73.18
37904;BME280;23738;50.422;18.758;2023-01-15T10:45:13;97387.98;;;6.13;73.46
37904;BME280;23738;50.422;18.758;2023-01-15T10:47:47;97384.55;;;6.20;73.27
37904;BME280;23738;50.422;18.758;2023-01-15T10:50:20;97376.31;;;6.24;73.62
37904;BME280;23738;50.422;18.758;2023-01-15T10:52:55;97369.23;;;6.24;73.69
37904;BME280;23738;50.422;18.758;2023-01-15T10:55:32;97369.79;;;6.26;73.86
37904;BME280;23738;50.422;18.758;2023-01-15T10:58:10;97362.70;;;6.26;73.66
37904;BME280;23738;50.422;18.758;2023-01-15T11:00:42;97353.85;;;6.24;73.78
37904;BME280;23738;50.422;18.758;2023-01-15T11:03:18;97345.10;;;6.21;73.63
37904;BME280;23738;50.422;18.758;2023-01-15T11:05:48;97338.36;;;6.20;73.58
37904;BME280;23738;50.422;18.758;2023-01-15T11:08:22;97329.66;;;6.21;73.59
37904;BME280;23738;50.422;18.758;2023-01-15T11:10:56;97320.05;;;6.22;73.95
37904;BME280;23738;50.422;18.758;2023-01-15T11:13:26;97316.77;;;6.23;74.02
37904;BME280;23738;50.422;18.758;2023-01-15T11:16:16;97316.52;;;6.24;73.95
37904;BME280;23738;50.422;18.758;2023-01-15T11:19:24;97308.70;;;6.21;74.15
37904;BME280;23738;50.422;18.758;2023-01-15T11:22:09;97307.47;;;6.21;74.14
37904;BME280;23738;50.422;18.758;2023-01-15T11:24:46;97311.78;;;6.20;74.00
37904;BME280;23738;50.422;18.758;2023-01-15T11:27:19;97307.83;;;6.22;74.20
37904;BME280;23738;50.422;18.758;2023-01-15T11:29:54;97303.58;;;6.25;74.29
37904;BME280;23738;50.422;18.758;2023-01-15T11:32:29;97302.83;;;6.28;74.43
37904;BME280;23738;50.422;18.758;2023-01-15T11:34:59;97306.26;;;6.29;74.35
37904;BME280;23738;50.422;18.758;2023-01-15T11:37:29;97311.66;;;6.29;74.42
37904;BME280;23738;50.422;18.758;2023-01-15T11:40:00;97311.98;;;6.29;74.40
37904;BME280;23738;50.422;18.758;2023-01-15T11:42:37;97311.30;;;6.28;74.66
37904;BME280;23738;50.422;18.758;2023-01-15T11:45:25;97304.31;;;6.28;74.81
37904;BME280;23738;50.422;18.758;2023-01-15T11:48:17;97292.46;;;6.29;74.75
37904;BME280;23738;50.422;18.758;2023-01-15T11:51:07;97286.88;;;6.30;74.95
37904;BME280;23738;50.422;18.758;2023-01-15T11:53:42;97282.05;;;6.29;74.86
37904;BME280;23738;50.422;18.758;2023-01-15T11:56:16;97270.99;;;6.28;74.83
37904;BME280;23738;50.422;18.758;2023-01-15T11:58:47;97271.27;;;6.26;74.98
37904;BME280;23738;50.422;18.758;2023-01-15T12:01:24;97274.29;;;6.24;74.82
37904;BME280;23738;50.422;18.758;2023-01-15T12:03:55;97269.20;;;6.25;74.90
37904;BME280;23738;50.422;18.758;2023-01-15T12:06:26;97270.30;;;6.27;75.02
37904;BME280;23738;50.422;18.758;2023-01-15T12:09:03;97266.02;;;6.26;74.79
37904;BME280;23738;50.422;18.758;2023-01-15T12:11:49;97264.61;;;6.25;75.08
37904;BME280;23738;50.422;18.758;2023-01-15T12:14:36;97262.48;;;6.23;75.16
37904;BME280;23738;50.422;18.758;2023-01-15T12:17:19;97259.62;;;6.21;75.17
37904;BME280;23738;50.422;18.758;2023-01-15T12:19:58;97252.15;;;6.19;74.98
37904;BME280;23738;50.422;18.758;2023-01-15T12:22:41;97252.68;;;6.20;75.12
37904;BME280;23738;50.422;18.758;2023-01-15T12:25:23;97247.38;;;6.22;75.13
37904;BME280;23738;50.422;18.758;2023-01-15T12:27:58;97249.08;;;6.23;75.04
37904;BME280;23738;50.422;18.758;2023-01-15T12:30:36;97247.73;;;6.26;75.02
37904;BME280;23738;50.422;18.758;2023-01-15T12:33:22;97245.29;;;6.23;74.76
37904;BME280;23738;50.422;18.758;2023-01-15T12:35:59;97241.79;;;6.21;74.99
37904;BME280;23738;50.422;18.758;2023-01-15T12:38:41;97237.77;;;6.23;75.10
37904;BME280;23738;50.422;18.758;2023-01-15T12:41:14;97243.79;;;6.27;74.82
37904;BME280;23738;50.422;18.758;2023-01-15T12:43:48;97246.13;;;6.30;74.95
37904;BME280;23738;50.422;18.758;2023-01-15T12:46:40;97247.73;;;6.32;75.06
37904;BME280;23738;50.422;18.758;2023-01-15T12:49:18;97241.38;;;6.30;74.97
37904;BME280;23738;50.422;18.758;2023-01-15T12:51:56;97244.84;;;6.30;74.93
37904;BME280;23738;50.422;18.758;2023-01-15T12:54:34;97237.48;;;6.30;75.00
37904;BME280;23738;50.422;18.758;2023-01-15T12:57:14;97227.26;;;6.30;74.80
37904;BME280;23738;50.422;18.758;2023-01-15T12:59:49;97232.16;;;6.32;74.81
37904;BME280;23738;50.422;18.758;2023-01-15T13:02:27;97236.39;;;6.35;74.71
37904;BME280;23738;50.422;18.758;2023-01-15T13:05:11;97234.81;;;6.39;75.01
37904;BME280;23738;50.422;18.758;2023-01-15T13:07:49;97239.41;;;6.41;74.93
37904;BME280;23738;50.422;18.758;2023-01-15T13:10:24;97240.50;;;6.40;75.18
37904;BME280;23738;50.422;18.758;2023-01-15T13:13:01;97241.06;;;6.40;74.84
37904;BME280;23738;50.422;18.758;2023-01-15T13:15:50;97239.34;;;6.37;75.21
37904;BME280;23738;50.422;18.758;2023-01-15T13:18:25;97243.86;;;6.31;74.90
37904;BME280;23738;50.422;18.758;2023-01-15T13:21:00;97251.80;;;6.32;74.87
37904;BME280;23738;50.422;18.758;2023-01-15T13:23:47;97251.83;;;6.36;74.98
37904;BME280;23738;50.422;18.758;2023-01-15T13:26:32;97250.03;;;6.40;75.14
37904;BME280;23738;50.422;18.758;2023-01-15T13:29:16;97256.89;;;6.41;75.02
37904;BME280;23738;50.422;18.758;2023-01-15T13:31:57;97249.95;;;6.39;75.31
37904;BME280;23738;50.422;18.758;2023-01-15T13:34:35;97245.17;;;6.39;75.59
37904;BME280;23738;50.422;18.758;2023-01-15T13:37:17;97248.10;;;6.39;75.64